Terminal Aerodrome Forecast
Issued by NWS Boston, MA

Home | Current Version | Previous Version | Text Only | Print | Product List | Glossary On
Versions: 1 2 3 4 5 6 7 8 9 10 11 12 13 14 15 16 17 18 19 20 21 22 23 24 25 26 27 28 29 30 31 32 33 34 35 36 37 38 39 40 41 42 43 44 45 46 47
049
FTUS41 KBOX 100907 AAA
TAFBDL
TAF AMD
KBDL 100907Z 1009/1112 VRB03KT 3SM -SHSN BKN030
      TEMPO 1010/1014 2SM -SN BKN020
     FM101700 21004KT P6SM VCSH OVC015
     FM101900 22005KT P6SM VCSH OVC040
     FM102100 26006KT P6SM BKN035
     FM110800 30004KT P6SM VCSH BKN040=

USA.gov is the U.S. government's official web portal to all federal, state and local government web resources and services.